aviador You're here:

OIZB Decoded Metar

ZABOL in IRAN
Report Time2018-06-25 11:00:00
UTC Time2018-06-25 11:48:24
Flight Rules ifr IFR
Wind340° at 33 Gusting to 43 kt
W.Decomp.*RWY 34: 33.0 kt HW 1.2 kt LCW
W.Rank340° ranks 3
Current wind is above 340° avg. (14.2)
Visibility4000 m
Phenomena:Sand
Clouds:N/A
Expected CloudBase > 16,000 ft AGL from Temp-Dew spread
CeilingNone
Temp41°C (ISA +29)
Dew Point01°C (8% RH)
Heat Index37.6°C
AAT27.2°C
QNH0998 hPa
Density Alt5,456 ft
Elevation1,604 ft
Report Wrong Elevation
Raw Report
METAR OIZB 251100Z 34033G43KT 4000 SA NSC 41/01 Q0998=

Extra information for OIZB:More info

Metar Taf Metar & Taf Last 4 Metars F.Rules Stats Wind Profile Meteogram Temp Stats Airport Information Weather charts Add Link Nearby VenuesMetar ALERT Operation Metar Decoded Social comments